This is the latest recevied weather packets stored in our database for station/object K0WOI. If no packets are shown the sender has not sent any weather packets the latest 10 day(s).
| Time | Temp. | Humidity | Pressure | Rain* | Wind** | Luminosity | Snow |
|---|---|---|---|---|---|---|---|
| 1777866275 | 12.78° C | 64% | 1006.5 hPa | 0 mm | - | 0 W/m² | - |
| 1777865972 | 12.78° C | 63% | 1006.5 hPa | 0 mm | - | 0 W/m² | - |
| 1777865669 | 13.33° C | 61% | 1006.9 hPa | 0 mm | - | 0 W/m² | - |
| 1777865366 | 14.44° C | 54% | 1006.7 hPa | 0 mm | - | 0 W/m² | - |
| 1777865063 | 15° C | 51% | 1006.9 hPa | 0 mm | - | 0 W/m² | - |
| 1777864760 | 15.56° C | 43% | 1006.9 hPa | 0 mm | - | 0 W/m² | - |
| 1777864457 | 15.56° C | 43% | 1006.8 hPa | 0 mm | - | 0 W/m² | - |
| 1777864154 | 15° C | 44% | 1006.9 hPa | 0 mm | - | 0 W/m² | - |
| 1777863851 | 15° C | 44% | 1006.8 hPa | 0 mm | - | 0 W/m² | - |
| 1777863546 | 14.44° C | 44% | 1006.9 hPa | 0 mm | - | 0 W/m² | - |
| 1777863244 | 15° C | 45% | 1007.1 hPa | 0 mm | - | 0 W/m² | - |
| 1777862940 | 15° C | 49% | 1007.1 hPa | 0 mm | - | 0 W/m² | - |
| 1777862637 | 15.56° C | 43% | 1006.9 hPa | 0 mm | - | 0 W/m² | - |
| 1777862334 | 16.11° C | 41% | 1006.8 hPa | 0 mm | - | 0 W/m² | - |
| 1777862030 | 16.11° C | 39% | 1007 hPa | 0 mm | - | 0 W/m² | - |
| 1777861726 | 16.67° C | 39% | 1006.8 hPa | 0 mm | - | 0 W/m² | - |
| 1777861423 | 16.67° C | 38% | 1007.1 hPa | 0 mm | - | 0 W/m² | - |
| 1777861119 | 17.22° C | 37% | 1006.9 hPa | 0 mm | - | 0 W/m² | - |
| 1777860817 | 17.22° C | 37% | 1007 hPa | 0 mm | - | 0 W/m² | - |
| 1777860514 | 17.22° C | 36% | 1007 hPa | 0 mm | - | 0 W/m² | - |
| 1777860211 | 17.78° C | 35% | 1006.8 hPa | 0 mm | - | 0 W/m² | - |
| 1777859907 | 17.78° C | 35% | 1006.7 hPa | 0 mm | - | 0 W/m² | - |
| 1777859603 | 17.78° C | 35% | 1006.8 hPa | 0 mm | - | 0 W/m² | - |
| 1777859299 | 18.33° C | 34% | 1006.9 hPa | 0 mm | - | 0 W/m² | - |
| 1777858995 | 18.33° C | 34% | 1006.7 hPa | 0 mm | - | 0 W/m² | - |
* Rain latest hour (hover to see other rain measurements)
** Current wind speed in m/s (hover to see current wind gust speed)